Time;durP1;ratioP1;P1;durP2;ratioP2;P2;SDS_P1;SDS_P2;PMS_P1;PMS_P2;Temp;Humidity;BMP_temperature;BMP_pressure;BME280_temperature;BME280_humidity;BME280_pressure;Samples;Min_cycle;Max_cycle;Signal;HPM_P1;HPM_P2
2023/12/09 00:00:47;;;;;;;57.00;3.90;;;;;;;20.16;53.92;99193.31;7316011;19;131255;-39
2023/12/09 00:03:13;;;;;;;103.40;5.25;;;;;;;20.06;54.33;99163.78;7315782;19;130308;-38
2023/12/09 00:05:38;;;;;;;92.85;5.25;;;;;;;20.19;54.29;99187.00;7315787;19;129871;-37
2023/12/09 00:08:04;;;;;;;115.22;6.32;;;;;;;20.15;53.93;99191.69;7313829;19;129363;-39
2023/12/09 00:10:29;;;;;;;51.40;3.90;;;;;;;20.13;54.58;99182.31;7317243;19;130567;-39
2023/12/09 00:12:54;;;;;;;47.25;3.40;;;;;;;20.15;54.07;99183.84;7314932;19;129040;-39
2023/12/09 00:15:20;;;;;;;68.07;4.35;;;;;;;20.11;54.23;99192.91;7315323;19;129037;-39
2023/12/09 00:17:45;;;;;;;46.60;3.72;;;;;;;20.16;54.06;99188.09;7314177;19;129110;-39
2023/12/09 00:20:11;;;;;;;62.47;4.50;;;;;;;20.15;53.84;99190.84;7314649;19;129060;-39
2023/12/09 00:22:38;;;;;;;139.35;6.88;;;;;;;20.14;54.13;99192.63;7315198;19;130596;-39
2023/12/09 00:25:03;;;;;;;140.70;6.78;;;;;;;20.04;54.71;99165.72;7315046;19;128965;-39
2023/12/09 00:27:29;;;;;;;67.87;4.23;;;;;;;20.14;54.75;99176.97;7313041;19;128845;-39
2023/12/09 00:29:54;;;;;;;76.40;4.15;;;;;;;20.13;54.17;99177.09;7313961;19;130498;-39
2023/12/09 00:32:19;;;;;;;98.90;5.15;;;;;;;20.17;53.99;99188.94;7312559;19;130953;-39
2023/12/09 00:34:45;;;;;;;54.78;3.67;;;;;;;20.15;53.93;99183.00;7314131;19;129183;-39
2023/12/09 00:37:11;;;;;;;74.70;5.00;;;;;;;20.16;54.07;99182.06;7311892;19;130531;-39
2023/12/09 00:39:36;;;;;;;68.70;3.90;;;;;;;20.14;54.21;99182.19;7315505;19;130689;-39
2023/12/09 00:42:02;;;;;;;137.10;6.65;;;;;;;20.13;54.36;99182.31;7314806;19;130243;-37
2023/12/09 00:44:28;;;;;;;66.93;4.90;;;;;;;20.08;53.63;99179.31;7314955;19;129240;-39
2023/12/09 00:46:53;;;;;;;28.70;2.95;;;;;;;20.10;54.05;99185.19;7314640;19;129080;-39
2023/12/09 00:49:18;;;;;;;97.22;4.90;;;;;;;19.98;54.39;99162.84;7311005;19;131071;-39
2023/12/09 00:51:43;;;;;;;115.75;6.03;;;;;;;20.11;54.40;99189.47;7314393;19;129589;-39
2023/12/09 00:54:09;;;;;;;161.75;8.10;;;;;;;19.98;53.82;99163.66;7310973;19;129272;-40
2023/12/09 00:56:34;;;;;;;96.88;5.25;;;;;;;20.16;54.29;99187.28;7309670;19;129677;-37
2023/12/09 00:58:59;;;;;;;173.35;7.72;;;;;;;20.18;54.56;99195.81;7309405;19;130146;-40
2023/12/09 01:01:25;;;;;;;103.78;5.57;;;;;;;20.11;54.24;99179.03;7308028;19;130146;-39
2023/12/09 01:03:50;;;;;;;66.20;4.32;;;;;;;20.12;54.08;99188.50;7311398;19;129482;-39
2023/12/09 01:06:16;;;;;;;67.60;4.28;;;;;;;20.14;54.56;99183.97;7311716;19;129265;-39
2023/12/09 01:08:42;;;;;;;139.93;6.90;;;;;;;20.04;54.29;99168.31;7310423;19;131122;-39
2023/12/09 01:11:07;;;;;;;85.82;5.00;;;;;;;20.14;54.52;99184.78;7311557;19;131191;-39
2023/12/09 01:13:33;;;;;;;79.35;5.03;;;;;;;20.17;54.76;99188.94;7311236;19;128804;-39
2023/12/09 01:15:58;;;;;;;71.93;4.60;;;;;;;20.16;54.06;99182.06;7312306;19;129470;-39
2023/12/09 01:18:23;;;;;;;128.02;6.18;;;;;;;20.15;54.77;99190.84;7310284;19;130167;-37
2023/12/09 01:20:49;;;;;;;61.40;4.15;;;;;;;20.12;54.02;99188.50;7313822;19;130421;-40
2023/12/09 01:23:14;;;;;;;53.10;3.92;;;;;;;20.12;53.88;99191.94;7313711;19;129002;-39
2023/12/09 01:25:39;;;;;;;86.78;5.22;;;;;;;20.13;54.71;99187.53;7311642;19;129478;-40
2023/12/09 01:28:05;;;;;;;132.32;6.75;;;;;;;20.14;54.35;99186.56;7310525;19;130335;-39
2023/12/09 01:30:30;;;;;;;58.60;4.18;;;;;;;20.12;54.62;99186.72;7313780;19;129053;-39
2023/12/09 01:32:56;;;;;;;69.72;4.57;;;;;;;20.14;54.84;99186.56;7312458;19;130333;-39
2023/12/09 01:35:21;;;;;;;91.95;4.95;;;;;;;20.09;54.65;99180.94;7313886;19;129438;-39
2023/12/09 01:37:46;;;;;;;117.53;5.72;;;;;;;20.12;54.90;99188.50;7310546;19;129384;-40
2023/12/09 01:40:15;;;;;;;101.35;5.45;;;;;;;20.06;54.64;99176.00;7311603;19;130833;-39
2023/12/09 01:42:44;;;;;;;55.78;4.40;;;;;;;20.03;54.84;99184.13;7313359;19;129154;-39
2023/12/09 01:45:10;;;;;;;122.47;5.93;;;;;;;20.12;54.14;99185.88;7313463;19;129191;-39
2023/12/09 01:47:38;;;;;;;68.18;4.22;;;;;;;20.13;54.65;99190.16;7312402;19;130507;-39
2023/12/09 01:50:04;;;;;;;70.15;4.25;;;;;;;20.11;54.65;99192.06;7314964;19;130991;-39
2023/12/09 01:52:31;;;;;;;54.63;4.03;;;;;;;20.09;53.97;99199.22;7311993;19;129651;-38
2023/12/09 01:54:57;;;;;;;90.53;5.00;;;;;;;20.10;54.52;99193.00;7310814;19;128885;-39
2023/12/09 01:57:23;;;;;;;114.75;6.18;;;;;;;20.08;54.18;99184.53;7310109;19;130154;-39
2023/12/09 01:59:49;;;;;;;49.33;3.72;;;;;;;20.07;54.29;99177.66;7314208;19;130510;-39
2023/12/09 02:02:14;;;;;;;90.05;5.38;;;;;;;20.10;54.17;99187.81;7311796;19;129366;-39
2023/12/09 02:04:39;;;;;;;151.38;6.90;;;;;;;20.09;54.15;99184.38;7311341;19;129427;-39
2023/12/09 02:07:05;;;;;;;72.18;4.45;;;;;;;20.08;54.69;99185.34;7311400;19;129367;-39
2023/12/09 02:09:31;;;;;;;53.67;3.83;;;;;;;20.09;53.91;99181.78;7313318;19;130474;-39
2023/12/09 02:12:13;;;;;;;109.47;6.28;;;;;;;20.11;55.00;99184.25;7308142;19;129001;-40
2023/12/09 02:15:03;;;;;;;42.97;3.60;;;;;;;20.09;54.95;99186.16;7310061;19;128903;-36
2023/12/09 02:17:51;;;;;;;117.55;5.97;;;;;;;19.95;54.88;99168.34;7306776;19;130699;-39
2023/12/09 02:20:17;;;;;;;55.55;4.50;;;;;;;20.04;54.39;99197.03;7311836;19;129420;-39
2023/12/09 02:22:43;;;;;;;123.90;6.30;;;;;;;20.05;54.22;99190.00;7312170;19;129152;-39
2023/12/09 02:25:08;;;;;;;89.97;5.25;;;;;;;19.95;54.53;99163.94;7311258;19;129049;-39
2023/12/09 02:27:47;;;;;;;111.68;5.82;;;;;;;20.08;54.86;99184.53;7309887;19;129878;-40
2023/12/09 02:30:20;;;;;;;85.50;5.03;;;;;;;19.96;54.65;99164.75;7312531;19;130701;-39
2023/12/09 02:32:47;;;;;;;59.38;4.53;;;;;;;20.05;53.84;99205.66;7310434;19;129626;-39
2023/12/09 02:35:15;;;;;;;106.35;5.63;;;;;;;20.03;53.97;99205.00;7309783;19;128889;-40
2023/12/09 02:37:42;;;;;;;100.43;5.68;;;;;;;20.05;54.84;99200.44;7309300;19;130336;-40
2023/12/09 02:40:11;;;;;;;98.03;5.70;;;;;;;20.05;53.91;99201.28;7311261;19;131953;-36
2023/12/09 02:42:39;;;;;;;99.53;5.35;;;;;;;19.91;54.77;99177.41;7311730;19;129820;-38
2023/12/09 02:45:09;;;;;;;218.65;9.32;;;;;;;20.02;54.96;99195.50;7308039;19;129059;-39
2023/12/09 02:47:34;;;;;;;114.15;6.45;;;;;;;20.07;54.00;99204.56;7304236;19;130094;-39
2023/12/09 02:49:59;;;;;;;61.67;4.35;;;;;;;20.05;54.65;99201.28;7311145;19;131218;-39
2023/12/09 02:52:25;;;;;;;62.60;4.03;;;;;;;20.01;54.66;99199.91;7310468;19;128956;-39
2023/12/09 02:54:50;;;;;;;119.05;6.45;;;;;;;20.01;54.34;99202.53;7304755;19;129707;-39
2023/12/09 02:57:16;;;;;;;70.93;4.07;;;;;;;20.06;54.99;99196.88;7310360;19;130199;-39
2023/12/09 02:59:41;;;;;;;39.95;3.45;;;;;;;20.05;54.36;99196.06;7309211;19;130342;-39
2023/12/09 03:02:06;;;;;;;78.07;4.43;;;;;;;20.05;54.57;99197.84;7311388;19;128897;-38
2023/12/09 03:04:32;;;;;;;137.70;6.50;;;;;;;20.05;54.73;99198.66;7311155;19;129007;-39
2023/12/09 03:06:57;;;;;;;59.35;4.18;;;;;;;20.04;55.09;99194.41;7310047;19;130150;-39
2023/12/09 03:09:23;;;;;;;61.85;4.00;;;;;;;19.88;55.12;99172.47;7311563;19;129851;-38
2023/12/09 03:11:48;;;;;;;47.88;3.60;;;;;;;20.04;54.89;99193.59;7310108;19;129267;-39
2023/12/09 03:14:13;;;;;;;126.70;6.57;;;;;;;20.04;54.58;99199.63;7309864;19;129288;-39
2023/12/09 03:16:39;;;;;;;110.38;5.72;;;;;;;20.04;55.15;99204.03;7309715;19;130596;-39
2023/12/09 03:19:04;;;;;;;92.97;5.30;;;;;;;20.01;54.67;99204.31;7307132;19;129552;-39
2023/12/09 03:21:30;;;;;;;97.35;5.05;;;;;;;20.02;54.58;99205.94;7310037;19;129077;-39
2023/12/09 03:23:55;;;;;;;139.25;6.72;;;;;;;19.98;54.75;99201.97;7310399;19;129666;-37
2023/12/09 03:26:21;;;;;;;81.75;4.85;;;;;;;20.01;55.12;99202.53;7308958;19;129254;-40
2023/12/09 03:28:46;;;;;;;54.58;3.50;;;;;;;19.98;54.78;99209.81;7308350;19;129570;-39
2023/12/09 03:31:15;;;;;;;134.10;6.25;;;;;;;20.00;55.03;99202.66;7310552;19;129168;-39
2023/12/09 03:33:41;;;;;;;110.32;5.70;;;;;;;20.00;55.20;99202.66;7308080;19;129154;-39
2023/12/09 03:36:08;;;;;;;75.17;4.43;;;;;;;20.03;54.72;99205.00;7309735;19;130921;-39
2023/12/09 03:38:34;;;;;;;;;;;;;;;20.02;55.89;99200.72;7307146;19;129325;-39
2023/12/09 03:40:59;;;;;;;118.80;5.83;;;;;;;19.99;54.81;99199.22;7310322;19;129461;-37
2023/12/09 03:43:25;;;;;;;109.80;5.80;;;;;;;19.96;55.46;99196.06;7311010;19;129264;-39
2023/12/09 03:45:50;;;;;;;102.60;5.40;;;;;;;19.98;54.85;99199.38;7307375;19;131274;-39
2023/12/09 03:48:15;;;;;;;53.55;3.65;;;;;;;19.99;54.63;99193.19;7307064;19;130417;-38
2023/12/09 03:50:41;;;;;;;120.65;6.28;;;;;;;19.97;54.73;99197.72;7309577;19;129303;-37
2023/12/09 03:53:06;;;;;;;207.93;9.45;;;;;;;19.96;55.56;99204.72;7307102;19;130979;-39
2023/12/09 03:55:31;;;;;;;98.85;5.22;;;;;;;19.98;54.94;99210.59;7305270;19;130177;-38
2023/12/09 03:57:57;;;;;;;56.20;4.07;;;;;;;19.94;54.48;99208.44;7302672;19;131288;-39
2023/12/09 04:00:22;;;;;;;112.18;6.43;;;;;;;19.94;54.48;99214.47;7303828;19;129020;-38
2023/12/09 04:02:48;;;;;;;59.42;3.92;;;;;;;19.98;54.86;99215.03;7309666;19;130735;-40
2023/12/09 04:05:14;;;;;;;113.43;5.78;;;;;;;19.94;54.77;99213.66;7308646;19;129483;-39
2023/12/09 04:07:39;;;;;;;75.13;4.43;;;;;;;19.95;55.34;99213.50;7307523;19;129467;-39
2023/12/09 04:10:05;;;;;;;107.95;5.68;;;;;;;19.94;55.35;99213.66;7315926;19;129111;-39
2023/12/09 04:12:30;;;;;;;53.38;3.55;;;;;;;19.96;54.84;99216.94;7316899;19;129084;-39
2023/12/09 04:14:57;;;;;;;64.70;4.18;;;;;;;19.97;54.76;99219.41;7313994;19;129433;-39
2023/12/09 04:17:22;;;;;;;111.07;5.75;;;;;;;19.93;54.85;99215.41;7314110;19;130440;-38
2023/12/09 04:19:48;;;;;;;55.85;3.55;;;;;;;19.93;54.84;99225.06;7313614;19;129477;-39
2023/12/09 04:22:13;;;;;;;47.03;3.33;;;;;;;19.97;55.04;99223.78;7316652;19;129877;-39
2023/12/09 04:24:40;;;;;;;33.30;3.13;;;;;;;19.95;55.19;99228.34;7314862;19;131332;-39
2023/12/09 04:27:05;;;;;;;105.57;5.80;;;;;;;19.97;54.43;99223.78;7313705;19;130453;-39
2023/12/09 04:29:31;;;;;;;101.18;5.40;;;;;;;19.95;55.32;99218.72;7314328;19;129313;-37
2023/12/09 04:31:56;;;;;;;106.80;5.30;;;;;;;19.97;55.42;99221.19;7313875;19;129231;-39
2023/12/09 04:34:21;;;;;;;53.20;4.15;;;;;;;19.97;54.77;99218.56;7312715;19;129505;-40
2023/12/09 04:36:47;;;;;;;110.63;5.40;;;;;;;20.01;54.69;99225.19;7314754;19;129569;-39
2023/12/09 04:39:12;;;;;;;142.77;6.72;;;;;;;19.97;55.03;99224.63;7312702;19;129004;-39
2023/12/09 04:41:38;;;;;;;76.80;4.47;;;;;;;19.95;54.81;99229.16;7314655;19;130049;-37
2023/12/09 04:44:03;;;;;;;48.50;3.40;;;;;;;19.98;55.17;99230.69;7315326;19;129293;-39
2023/12/09 04:46:29;;;;;;;185.00;8.25;;;;;;;19.96;54.88;99233.44;7313857;19;130897;-39
2023/12/09 04:48:56;;;;;;;70.82;4.05;;;;;;;19.92;55.44;99239.88;7310629;19;129490;-40
2023/12/09 04:51:21;;;;;;;31.65;3.25;;;;;;;19.94;55.42;99234.50;7314475;19;129070;-39
2023/12/09 04:53:47;;;;;;;58.90;3.67;;;;;;;19.96;55.50;99227.38;7313349;19;130111;-40
2023/12/09 04:56:12;;;;;;;162.43;7.65;;;;;;;19.95;55.07;99236.19;7315717;19;131314;-39
2023/12/09 04:58:37;;;;;;;24.63;2.70;;;;;;;19.92;54.96;99231.22;7314046;19;128946;-39
2023/12/09 05:01:03;;;;;;;88.30;5.15;;;;;;;19.92;55.27;99229.44;7310530;19;129318;-39
2023/12/09 05:03:30;;;;;;;68.72;4.55;;;;;;;19.89;55.02;99226.28;7314623;19;130120;-40
2023/12/09 05:05:55;;;;;;;121.85;5.82;;;;;;;19.77;55.04;99211.72;7309022;19;130432;-39
2023/12/09 05:08:20;;;;;;;60.53;3.83;;;;;;;19.89;55.40;99231.50;7312542;19;131594;-37
2023/12/09 05:10:46;;;;;;;66.28;3.95;;;;;;;19.76;55.50;99204.88;7313664;19;129479;-40
2023/12/09 05:13:11;;;;;;;110.78;6.10;;;;;;;19.93;54.84;99225.06;7314135;19;130062;-39
2023/12/09 05:15:37;;;;;;;181.60;7.78;;;;;;;19.90;55.38;99230.56;7310671;19;130365;-39
2023/12/09 05:18:02;;;;;;;91.97;5.50;;;;;;;19.95;54.41;99225.75;7311546;19;129166;-37
2023/12/09 05:20:28;;;;;;;49.65;3.92;;;;;;;19.82;55.11;99204.31;7313775;19;129332;-40
2023/12/09 05:22:53;;;;;;;109.78;5.88;;;;;;;19.91;54.85;99219.97;7314018;19;130884;-38
2023/12/09 05:25:18;;;;;;;135.18;6.60;;;;;;;19.92;55.26;99220.78;7312431;19;130390;-39
2023/12/09 05:27:44;;;;;;;54.38;3.72;;;;;;;19.91;55.40;99224.34;7312604;19;129210;-39
2023/12/09 05:30:09;;;;;;;58.85;3.97;;;;;;;19.91;55.20;99232.19;7313914;19;128878;-39
2023/12/09 05:32:36;;;;;;;133.20;6.35;;;;;;;19.88;54.85;99219.44;7313231;19;130243;-39
2023/12/09 05:35:02;;;;;;;27.30;3.00;;;;;;;19.74;55.18;99202.41;7311590;19;130517;-39
2023/12/09 05:37:27;;;;;;;91.00;5.28;;;;;;;19.92;55.39;99221.59;7311547;19;129090;-39
2023/12/09 05:39:52;;;;;;;107.90;5.90;;;;;;;19.91;55.33;99225.19;7311415;19;129246;-40
2023/12/09 05:42:18;;;;;;;143.30;7.28;;;;;;;19.90;55.16;99227.94;7311894;19;129062;-39
2023/12/09 05:44:43;;;;;;;65.50;4.40;;;;;;;19.96;55.22;99230.00;7313725;19;130423;-39
2023/12/09 05:47:08;;;;;;;88.82;5.03;;;;;;;19.91;55.06;99216.53;7310372;19;130953;-39
2023/12/09 05:49:34;;;;;;;62.20;3.92;;;;;;;19.92;54.93;99226.00;7309932;19;129418;-39
2023/12/09 05:51:59;;;;;;;140.88;6.82;;;;;;;19.93;55.06;99223.25;7312769;19;130794;-39
2023/12/09 05:54:25;;;;;;;52.28;3.65;;;;;;;19.86;55.21;99210.91;7311052;19;130978;-39
2023/12/09 05:56:50;;;;;;;62.08;4.00;;;;;;;19.89;55.41;99226.28;7312288;19;129276;-39
2023/12/09 05:59:15;;;;;;;105.90;5.55;;;;;;;19.88;55.51;99225.47;7307023;19;129860;-39
2023/12/09 06:01:41;;;;;;;82.82;4.63;;;;;;;19.91;55.59;99219.13;7310462;19;131099;-39
2023/12/09 06:04:06;;;;;;;60.70;4.05;;;;;;;19.91;55.58;99214.75;7313457;19;129069;-37
2023/12/09 06:06:32;;;;;;;125.32;6.97;;;;;;;19.90;54.85;99212.28;7306174;19;128815;-38
2023/12/09 06:08:57;;;;;;;130.27;6.22;;;;;;;19.77;55.51;99196.91;7307580;19;129829;-39
2023/12/09 06:11:22;;;;;;;143.05;7.07;;;;;;;19.93;55.24;99219.84;7307407;19;129151;-38
2023/12/09 06:13:48;;;;;;;75.72;4.47;;;;;;;19.94;54.97;99213.66;7311394;19;130169;-39
2023/12/09 06:16:19;;;;;;;102.95;5.38;;;;;;;19.91;55.35;99213.94;7310668;19;129389;-39
2023/12/09 06:18:46;;;;;;;106.45;5.55;;;;;;;19.90;55.61;99204.47;7308403;19;129189;-40
2023/12/09 06:21:21;;;;;;;;;;;;;;;19.79;56.09;99183.72;7302775;19;130183;-40
2023/12/09 06:23:46;;;;;;;174.50;7.72;;;;;;;19.88;55.05;99198.56;7301419;19;130365;-39
2023/12/09 06:26:12;;;;;;;281.05;12.75;;;;;;;19.75;55.56;99177.94;7299310;19;129212;-40
2023/12/09 06:28:37;;;;;;;130.60;6.68;;;;;;;19.90;55.13;99201.84;7301771;19;129563;-39
2023/12/09 06:31:03;;;;;;;156.77;7.18;;;;;;;19.90;55.50;99204.47;7301414;19;130521;-39
2023/12/09 06:33:28;;;;;;;102.60;5.43;;;;;;;19.89;55.16;99208.00;7305974;19;132041;-37
2023/12/09 06:35:53;;;;;;;102.53;5.40;;;;;;;19.92;55.00;99210.34;7300173;19;129086;-39
2023/12/09 06:38:19;;;;;;;140.38;6.97;;;;;;;19.90;54.89;99212.28;7303829;19;129047;-38
2023/12/09 06:40:44;;;;;;;183.57;8.13;;;;;;;19.91;55.55;99208.72;7304931;19;130072;-39
2023/12/09 06:43:09;;;;;;;236.60;10.45;;;;;;;19.88;55.02;99202.00;7303734;19;130397;-39
2023/12/09 06:45:35;;;;;;;132.32;6.47;;;;;;;19.90;55.46;99201.84;7304547;19;129349;-39
2023/12/09 06:48:00;;;;;;;158.23;7.13;;;;;;;19.88;55.16;99203.78;7301852;19;129283;-40
2023/12/09 06:50:25;;;;;;;147.63;7.03;;;;;;;19.74;55.01;99175.47;7305176;19;130166;-40
2023/12/09 06:52:54;;;;;;;261.48;12.05;;;;;;;19.87;55.44;99200.34;7299340;19;129363;-40
2023/12/09 06:55:19;;;;;;;166.98;8.15;;;;;;;19.76;55.27;99181.38;7299177;19;129217;-39
2023/12/09 06:57:45;;;;;;;198.15;8.90;;;;;;;19.87;55.15;99194.28;7300485;19;130143;-39
2023/12/09 07:00:12;;;;;;;99.55;5.57;;;;;;;19.88;54.88;99196.78;7304268;19;130093;-39
2023/12/09 07:02:38;;;;;;;88.15;4.80;;;;;;;19.89;55.62;99194.97;7301909;19;130972;-38
2023/12/09 07:05:04;;;;;;;107.28;5.55;;;;;;;19.88;55.18;99182.91;7301168;19;129906;-40
2023/12/09 07:07:29;;;;;;;162.27;8.20;;;;;;;19.85;55.05;99189.19;7302875;19;129328;-39
2023/12/09 07:09:56;;;;;;;134.93;6.57;;;;;;;19.76;55.52;99171.78;7303117;19;130051;-40
2023/12/09 07:12:22;;;;;;;204.52;9.38;;;;;;;19.90;55.03;99201.84;7302990;19;130406;-39
2023/12/09 07:14:48;;;;;;;98.82;5.43;;;;;;;19.92;55.63;99199.91;7302257;19;129967;-40
2023/12/09 07:17:13;;;;;;;229.77;9.75;;;;;;;19.92;55.03;99190.31;7298637;19;130975;-39
2023/12/09 07:19:38;;;;;;;110.95;5.78;;;;;;;19.89;55.67;99194.97;7300739;19;129532;-39
2023/12/09 07:22:04;;;;;;;203.93;9.02;;;;;;;19.89;55.23;99197.59;7297077;19;131661;-39
2023/12/09 07:24:30;;;;;;;158.70;7.55;;;;;;;19.87;55.17;99192.50;7298546;19;131323;-39
2023/12/09 07:26:55;;;;;;;234.88;9.90;;;;;;;19.89;55.74;99197.59;7297729;19;129575;-39
2023/12/09 07:29:20;;;;;;;175.07;8.25;;;;;;;19.88;55.16;99198.56;7299655;19;131655;-39
2023/12/09 07:31:46;;;;;;;189.00;8.55;;;;;;;19.91;55.05;99204.31;7296120;19;130980;-39
2023/12/09 07:34:16;;;;;;;93.82;4.95;;;;;;;19.89;55.65;99205.41;7299986;19;129549;-38
2023/12/09 07:36:44;;;;;;;206.85;9.18;;;;;;;19.90;55.53;99213.09;7301408;19;129715;-40
2023/12/09 07:39:10;;;;;;;174.50;8.77;;;;;;;19.90;54.63;99220.13;7299099;19;130074;-38
2023/12/09 07:41:35;;;;;;;93.63;5.43;;;;;;;19.92;54.89;99221.59;7309068;19;131068;-40
2023/12/09 07:44:01;;;;;;;152.68;7.47;;;;;;;19.90;54.84;99215.69;7311630;19;130124;-42
2023/12/09 07:46:26;;;;;;;271.35;11.65;;;;;;;19.87;55.99;99222.97;7305115;19;129227;-41
2023/12/09 07:48:52;;;;;;;56.35;3.72;;;;;;;19.87;55.38;99215.16;7312215;19;130100;-42
2023/12/09 07:51:17;;;;;;;109.93;5.80;;;;;;;19.86;55.14;99205.69;7311684;19;129346;-38
2023/12/09 07:53:42;;;;;;;169.30;7.80;;;;;;;19.87;55.29;99212.53;7301769;19;130085;-41
2023/12/09 07:56:08;;;;;;;153.13;7.22;;;;;;;19.85;55.79;99211.88;7310891;19;129776;-41
2023/12/09 07:58:34;;;;;;;127.82;6.35;;;;;;;19.88;55.17;99215.03;7306945;19;129786;-40
2023/12/09 08:01:01;;;;;;;109.63;6.00;;;;;;;19.90;55.72;99207.88;7307321;19;132373;-41
2023/12/09 08:03:27;;;;;;;185.25;8.23;;;;;;;19.90;55.35;99197.44;7310149;19;129607;-40
2023/12/09 08:05:52;;;;;;;209.03;8.80;;;;;;;19.93;55.61;99194.53;7301792;19;130255;-40
2023/12/09 08:08:18;;;;;;;130.75;6.55;;;;;;;19.89;54.87;99198.41;7306238;19;130019;-40
2023/12/09 08:10:43;;;;;;;104.22;5.55;;;;;;;19.88;55.23;99201.16;7308134;19;130354;-42
2023/12/09 08:13:10;;;;;;;171.30;7.90;;;;;;;19.88;55.13;99201.16;7309997;19;129405;-41
2023/12/09 08:15:36;;;;;;;205.77;8.98;;;;;;;19.91;55.17;99203.50;7301029;19;130157;-38
2023/12/09 08:18:01;;;;;;;180.73;8.02;;;;;;;19.90;55.20;99201.84;7303233;19;131282;-40
2023/12/09 08:20:26;;;;;;;205.38;8.88;;;;;;;19.91;55.11;99204.31;7302862;19;130446;-42
2023/12/09 08:22:52;;;;;;;201.73;8.65;;;;;;;19.90;55.40;99201.84;7306401;19;132303;-39
2023/12/09 08:25:17;;;;;;;137.45;6.47;;;;;;;19.86;55.86;99192.66;7306825;19;129931;-34
2023/12/09 08:27:44;;;;;;;108.00;5.60;;;;;;;19.85;55.54;99183.97;7302339;19;131073;-41
2023/12/09 08:30:10;;;;;;;62.63;3.92;;;;;;;19.86;55.43;99195.25;7306504;19;131300;-38
2023/12/09 08:32:38;;;;;;;178.77;8.07;;;;;;;19.88;55.46;99193.34;7305807;19;128911;-39
2023/12/09 08:35:04;;;;;;;149.65;6.93;;;;;;;19.75;55.43;99174.53;7303440;19;130237;-39
2023/12/09 08:37:29;;;;;;;122.90;6.20;;;;;;;19.88;55.92;99193.34;7307381;19;130130;-40
2023/12/09 08:39:56;;;;;;;143.45;6.57;;;;;;;19.86;55.96;99190.88;7306006;19;130804;-41
2023/12/09 08:42:21;;;;;;;223.00;9.32;;;;;;;19.85;55.34;99180.56;7308422;19;129009;-39
2023/12/09 08:44:47;;;;;;;127.70;5.97;;;;;;;19.87;55.70;99189.91;7307504;19;129027;-38
2023/12/09 08:47:12;;;;;;;100.32;5.57;;;;;;;19.86;55.56;99184.81;7308373;19;129480;-42
2023/12/09 08:49:37;;;;;;;78.82;4.78;;;;;;;19.87;55.41;99183.84;7308307;19;130326;-42
2023/12/09 08:52:03;;;;;;;184.65;8.00;;;;;;;19.73;56.01;99166.84;7309268;19;129043;-39
2023/12/09 08:54:28;;;;;;;173.52;7.85;;;;;;;19.89;55.74;99189.75;7306064;19;129963;-39
2023/12/09 08:56:54;;;;;;;136.50;6.30;;;;;;;19.74;55.86;99175.47;7305793;19;130044;-40
2023/12/09 08:59:19;;;;;;;120.72;6.00;;;;;;;19.88;55.57;99198.56;7302815;19;130424;-38
2023/12/09 09:01:44;;;;;;;137.85;6.50;;;;;;;19.89;56.01;99189.75;7310159;19;129142;-42
2023/12/09 09:04:10;;;;;;;115.10;5.85;;;;;;;19.90;55.75;99186.19;7309677;19;129883;-41
2023/12/09 09:06:35;;;;;;;210.15;9.35;;;;;;;19.88;55.32;99185.50;7306808;19;130593;-40
2023/12/09 09:09:00;;;;;;;208.05;9.15;;;;;;;19.90;55.64;99175.75;7303867;19;130323;-40
2023/12/09 09:11:26;;;;;;;151.98;7.07;;;;;;;19.87;55.50;99162.97;7309469;19;128910;-39
2023/12/09 09:13:51;;;;;;;101.45;5.15;;;;;;;19.88;55.34;99175.91;7307689;19;130382;-39
2023/12/09 09:16:17;;;;;;;109.82;5.60;;;;;;;19.86;56.19;99169.16;7304768;19;130908;-40
2023/12/09 09:18:42;;;;;;;192.73;8.32;;;;;;;19.81;55.83;99171.38;7304056;19;130527;-41
2023/12/09 09:21:08;;;;;;;97.78;5.40;;;;;;;19.84;55.70;99171.09;7308452;19;129417;-39
2023/12/09 09:23:34;;;;;;;166.52;8.45;;;;;;;19.86;55.09;99164.78;7308022;19;131110;-40
2023/12/09 09:25:59;;;;;;;59.23;4.53;;;;;;;19.81;55.66;99163.53;7308003;19;130361;-41
2023/12/09 09:28:25;;;;;;;154.98;8.40;;;;;;;19.80;55.12;99164.50;7304225;19;130162;-41
2023/12/09 09:30:50;;;;;;;112.88;8.13;;;;;;;19.78;54.82;99159.44;7308675;19;128928;-43
2023/12/09 09:33:15;;;;;;;138.95;10.65;;;;;;;19.71;51.00;99152.28;7308382;19;129365;-37
2023/12/09 09:35:41;;;;;;;101.78;9.75;;;;;;;19.73;51.82;99158.19;7304429;19;130532;-42
2023/12/09 09:38:06;;;;;;;208.75;13.50;;;;;;;19.71;49.97;99150.50;7306279;19;130553;-40
2023/12/09 09:40:32;;;;;;;217.90;13.90;;;;;;;19.73;50.05;99147.75;7307028;19;129387;-39
2023/12/09 09:43:04;;;;;;;124.60;10.68;;;;;;;19.71;50.67;99149.69;7308209;19;132730;-41
2023/12/09 09:45:30;;;;;;;152.95;12.00;;;;;;;19.70;49.25;99146.25;7308097;19;130306;-39
2023/12/09 09:47:55;;;;;;;241.82;14.65;;;;;;;19.74;51.10;99142.41;7305883;19;129215;-40
2023/12/09 09:50:23;;;;;;;150.65;12.57;;;;;;;19.72;50.53;99135.69;7306827;19;129410;-41
2023/12/09 09:52:49;;;;;;;138.98;13.02;;;;;;;19.62;49.70;99114.03;7307564;19;130380;-41
2023/12/09 09:55:16;;;;;;;123.70;12.37;;;;;;;19.72;49.39;99135.69;7306265;19;130127;-42
2023/12/09 09:57:43;;;;;;;241.05;16.33;;;;;;;19.69;49.34;99121.13;7302856;19;130615;-35
2023/12/09 10:00:13;;;;;;;389.42;22.08;;;;;;;19.72;48.72;99128.69;7300972;19;131605;-40
2023/12/09 10:02:41;;;;;;;224.25;14.82;;;;;;;19.72;49.25;99117.44;7305991;19;129939;-38
2023/12/09 10:05:08;;;;;;;120.68;11.68;;;;;;;19.72;48.86;99120.06;7301871;19;130223;-40
2023/12/09 10:07:34;;;;;;;204.52;13.73;;;;;;;19.71;48.25;99108.78;7305477;19;130329;-42
2023/12/09 10:09:59;;;;;;;109.45;10.60;;;;;;;19.69;47.95;99107.25;7304614;19;128906;-41
2023/12/09 10:12:26;;;;;;;106.63;10.20;;;;;;;19.72;48.42;99093.97;7305890;19;129303;-40
2023/12/09 10:14:51;;;;;;;135.02;12.07;;;;;;;19.71;48.38;99090.53;7301833;19;132722;-40
2023/12/09 10:17:17;;;;;;;242.00;15.07;;;;;;;19.68;47.99;99087.38;7302694;19;130359;-41
2023/12/09 10:19:42;;;;;;;133.00;11.65;;;;;;;19.68;48.00;99087.38;7308666;19;131048;-42
2023/12/09 10:22:07;;;;;;;34.08;8.27;;;;;;;19.69;47.93;99094.22;7310724;19;129268;-42
2023/12/09 10:24:33;;;;;;;149.13;11.30;;;;;;;19.69;47.84;99089.84;7310329;19;130222;-41
2023/12/09 10:26:59;;;;;;;170.15;12.18;;;;;;;19.68;48.39;99095.19;7308119;19;130272;-39
2023/12/09 10:29:25;;;;;;;55.13;8.70;;;;;;;19.68;47.28;99088.22;7309942;19;129196;-42
2023/12/09 10:31:50;;;;;;;66.70;9.13;;;;;;;19.64;47.49;99089.44;7310621;19;130296;-42
2023/12/09 10:34:16;;;;;;;105.78;9.77;;;;;;;19.66;47.64;99086.69;7311789;19;131073;-40
2023/12/09 10:36:41;;;;;;;253.07;15.43;;;;;;;19.66;47.30;99081.47;7309243;19;130534;-40
2023/12/09 10:39:08;;;;;;;78.28;9.88;;;;;;;19.65;48.02;99077.22;7309170;19;129147;-40
2023/12/09 10:41:34;;;;;;;;;;;;;;;19.67;50.21;99085.75;7311862;19;129872;-40
2023/12/09 10:44:01;;;;;;;101.13;10.30;;;;;;;19.68;47.52;99076.94;7311608;19;130147;-40
2023/12/09 10:46:26;;;;;;;152.40;12.55;;;;;;;19.65;47.02;99080.63;7311793;19;130527;-41
2023/12/09 10:48:51;;;;;;;106.70;10.80;;;;;;;19.62;47.82;99075.72;7309382;19;130357;-41
2023/12/09 10:51:18;;;;;;;71.47;8.95;;;;;;;19.65;47.42;99072.00;7310538;19;129013;-42
2023/12/09 10:53:44;;;;;;;145.93;12.38;;;;;;;19.63;46.89;99072.16;7310598;19;133010;-41
2023/12/09 10:56:10;;;;;;;109.22;11.90;;;;;;;19.65;48.01;99066.81;7309495;19;131329;-40
2023/12/09 10:58:36;;;;;;;120.10;12.00;;;;;;;19.58;48.36;99050.88;7309140;19;129270;-43
2023/12/09 11:01:02;;;;;;;;;;;;;;;19.66;49.85;99058.00;7306655;19;130475;-39
2023/12/09 11:03:29;;;;;;;157.65;13.43;;;;;;;19.63;46.75;99050.47;7304541;19;130874;-40
2023/12/09 11:05:57;;;;;;;104.57;11.60;;;;;;;19.62;47.42;99048.84;7310379;19;129512;-39